Prospect, Connecticut
Current Conditions -  °F | °C
As of 11:53 PM on Friday 24 Oct 2014 (Local Time) from KMMK Reporting Station
Clear Clear  
Wind Chill: 45°   Ceiling: Unl
Heat Index: 48°   Visibility: 10mi
Dew Point: 43°   Wind: 6mph
Humidity: 83%   Direction: 340°NNW
Pressure: 29.8"   Gusts: NA
Location:  41.5°N, 72.98°W
Report Text: KMMK 250353Z AUTO 34005KT 10SM CLR 09/06 A2980 RMK AO2 SLP091 T00890061 TSNO
Loading
Personal Weather Stations






























Interactive Weather Map New forecast layout! Learn more

10-Day Weather Forecast

Advertisements
Track Severe Weather on mobile